Quantico MCAF /Turner field
KNYG : now visible

Airfield :











YOU CAN JOIN US ON...

 
LOGIN :

Register | Disclaimer

   EN    FR    IT 

 









Legend :    VFR   Marginal VFR   IFR   Intensive IFR   Very Intensive IFR
Visi :
Ceiling :
>= 8 km
>= 3000ft
5 to 8 km
1000 to 3000 ft
1500m to 5 km
500 to 1000 ft
800 to 1500m
200 to 500 ft
< 800m
< 200 ft
Symbols :   Thunderstorms  Fog  Heavy snow  Heavy precipitations  Wind > 20 kt







- Airport Elevation : 10 ft


KNYG - Quantico MCAF /Turner field

CURRENT METAR :
  • 201756Z AUTO 19007KT 10SM FEW055 SCT070 34/27 A2990 RMK AO2 SLP125 T03440267 10367 20261 58022 $

EXPIRED METARs :
  • 201656Z AUTO VRB03KT 10SM FEW049 37/24 A2992 RMK AO2 SLP132 T03670244 $
  • 201556Z AUTO 34007KT 10SM CLR 36/24 A2995 RMK AO2 SLP143 T03560239 $
  • 201456Z AUTO 32007KT 10SM CLR 35/24 A2996 RMK AO2 SLP147 T03500239 53003 $

TAF TAF KNYG
Valid from the 19 at 21:00 until the 20 at 21:00 UTC


1921/2021 VRB06KT 9999 SCT040 SCT070 QNH2988INS
BECMG 2008/2010 VRB06KT 9999 SCT100 QNH2991INS
BECMG 2018/2020 VRB06KT 9999 SCT060 SCT120 QNH2985INS T25/2010Z T38/2020Z LAST NO AMENDS UNTIL 2209Z
KZDC FIR / North America



MET'MAP, your aeronautical weather chart ! - Copyright ORBIFLY December 2007 - Disclaimer

ORBIFLY MET'MAP TEAM :

Programming & Development : Alexandra Zaïnal
Concept & Development : Baudouin d'Aumeries
Co-Development & Prog : Marc-Olivier Méhu
Technical & hardware support : Manuel Goepfert

Contact : metmap@orbifly.com




SOURCES & CREDITS :

   NOAA       Earth
Advisory